Time;durP1;ratioP1;P1;durP2;ratioP2;P2;SDS_P1;SDS_P2;PMS_P1;PMS_P2;Temp;Humidity;BMP_temperature;BMP_pressure;BME280_temperature;BME280_humidity;BME280_pressure;Samples;Min_cycle;Max_cycle;Signal;HPM_P1;HPM_P2
2023/12/08 00:02:21;;;;;;;12.47;12.10;;;2.60;99.90;;;;;;5071069;28;20514;-69
2023/12/08 00:04:48;;;;;;;12.90;12.50;;;2.70;99.90;;;;;;5075287;28;20960;-70
2023/12/08 00:07:15;;;;;;;12.10;11.80;;;2.70;99.90;;;;;;5086342;28;20466;-69
2023/12/08 00:09:43;;;;;;;12.70;12.30;;;2.70;99.90;;;;;;5085535;28;20482;-70
2023/12/08 00:12:10;;;;;;;12.13;11.83;;;2.60;99.90;;;;;;5078044;28;20470;-70
2023/12/08 00:14:38;;;;;;;12.40;12.03;;;2.70;99.90;;;;;;5094581;28;20528;-69
2023/12/08 00:17:06;;;;;;;12.13;11.83;;;2.70;99.90;;;;;;5078108;28;20824;-69
2023/12/08 00:19:33;;;;;;;11.90;11.60;;;2.70;99.90;;;;;;5090332;28;20463;-70
2023/12/08 00:22:00;;;;;;;12.17;11.87;;;2.60;99.90;;;;;;5092115;28;20531;-68
2023/12/08 00:24:26;;;;;;;12.10;11.80;;;2.60;99.90;;;;;;5088072;28;20495;-70
2023/12/08 00:26:55;;;;;;;11.93;11.63;;;2.70;99.90;;;;;;5089556;28;20857;-70
2023/12/08 00:29:21;;;;;;;12.50;12.10;;;2.70;99.90;;;;;;5085449;28;21037;-70
2023/12/08 00:31:48;;;;;;;12.00;11.70;;;2.70;99.90;;;;;;5083005;28;20880;-68
2023/12/08 00:34:18;;;;;;;11.80;11.50;;;2.80;99.90;;;;;;5084893;28;20523;-70
2023/12/08 00:36:44;;;;;;;12.03;11.73;;;2.80;99.90;;;;;;5076873;28;20469;-69
2023/12/08 00:39:14;;;;;;;11.77;11.47;;;2.90;99.90;;;;;;5085489;28;20459;-69
2023/12/08 00:41:41;;;;;;;11.90;11.60;;;2.90;99.90;;;;;;5089130;28;20754;-69
2023/12/08 00:44:09;;;;;;;12.10;11.80;;;3.00;99.90;;;;;;5084587;28;20496;-70
2023/12/08 00:46:36;;;;;;;12.40;12.10;;;3.00;99.90;;;;;;5087443;28;20447;-69
2023/12/08 00:49:03;;;;;;;12.17;11.87;;;3.00;99.90;;;;;;5091552;28;20488;-70
2023/12/08 00:51:30;;;;;;;13.03;12.63;;;2.90;99.90;;;;;;5090326;28;20525;-69
2023/12/08 00:53:56;;;;;;;13.40;13.00;;;2.90;99.90;;;;;;5078168;28;20452;-68
2023/12/08 00:56:24;;;;;;;12.90;12.50;;;2.90;99.90;;;;;;5081478;28;20491;-69
2023/12/08 00:58:51;;;;;;;12.70;12.30;;;3.00;99.90;;;;;;5089067;28;20455;-69
2023/12/08 01:01:20;;;;;;;12.90;12.50;;;3.00;99.90;;;;;;5082581;28;20832;-70
2023/12/08 01:03:47;;;;;;;13.60;13.20;;;3.00;99.90;;;;;;5076889;28;20590;-69
2023/12/08 01:06:14;;;;;;;13.20;12.80;;;3.00;99.90;;;;;;5080012;28;20504;-69
2023/12/08 01:08:40;;;;;;;13.17;12.77;;;3.00;99.90;;;;;;5084469;28;20511;-70
2023/12/08 01:11:09;;;;;;;13.17;12.77;;;3.00;99.90;;;;;;5077752;28;20458;-70
2023/12/08 01:13:37;;;;;;;13.40;13.00;;;3.00;99.90;;;;;;5091274;28;20455;-70
2023/12/08 01:16:06;;;;;;;13.00;12.60;;;3.00;99.90;;;;;;5091860;28;20486;-70
2023/12/08 01:18:36;;;;;;;13.37;12.97;;;2.90;99.90;;;;;;5080795;28;21013;-71
2023/12/08 01:21:03;;;;;;;13.07;12.67;;;3.00;99.90;;;;;;5079272;28;20510;-69
2023/12/08 01:23:29;;;;;;;13.10;12.70;;;3.00;99.90;;;;;;5083937;28;20487;-70
2023/12/08 01:25:56;;;;;;;13.20;12.80;;;3.00;99.90;;;;;;5084545;28;20493;-70
2023/12/08 01:28:23;;;;;;;13.23;12.83;;;3.00;99.90;;;;;;5080965;28;20467;-71
2023/12/08 01:30:50;;;;;;;12.77;12.37;;;3.00;99.90;;;;;;5078864;28;20559;-69
2023/12/08 01:33:18;;;;;;;13.50;13.10;;;3.00;99.90;;;;;;5080818;28;20467;-69
2023/12/08 01:35:47;;;;;;;15.70;15.10;;;3.00;99.90;;;;;;5083486;28;20462;-69
2023/12/08 01:38:14;;;;;;;18.57;17.67;;;3.00;99.90;;;;;;5072125;28;20471;-69
2023/12/08 01:40:41;;;;;;;18.80;17.90;;;2.90;99.90;;;;;;5085122;28;20504;-68
2023/12/08 01:43:11;;;;;;;19.80;18.80;;;2.80;99.90;;;;;;5087562;28;21009;-69
2023/12/08 01:45:38;;;;;;;19.63;18.63;;;2.80;99.90;;;;;;5088021;28;20482;-68
2023/12/08 01:48:05;;;;;;;20.30;19.20;;;2.80;99.90;;;;;;5074732;28;20475;-69
2023/12/08 01:50:33;;;;;;;20.43;19.33;;;2.70;99.90;;;;;;5078418;28;20828;-69
2023/12/08 01:53:03;;;;;;;19.80;18.70;;;2.70;99.90;;;;;;5084908;28;20828;-70
2023/12/08 01:55:31;;;;;;;19.60;18.53;;;2.60;99.90;;;;;;5088574;28;20539;-69
2023/12/08 01:57:58;;;;;;;19.50;18.50;;;2.60;99.90;;;;;;5073593;28;20462;-69
2023/12/08 02:00:25;;;;;;;19.20;18.20;;;2.60;99.90;;;;;;5084427;28;20501;-69
2023/12/08 02:02:52;;;;;;;18.90;17.90;;;2.60;99.90;;;;;;5089347;28;20969;-70
2023/12/08 02:05:21;;;;;;;19.10;18.10;;;2.60;99.90;;;;;;5077695;28;20833;-70
2023/12/08 02:07:49;;;;;;;19.80;18.70;;;2.60;99.90;;;;;;5085321;28;20547;-71
2023/12/08 02:10:17;;;;;;;19.30;18.30;;;2.60;99.90;;;;;;5081433;28;20467;-71
2023/12/08 02:12:44;;;;;;;19.70;18.60;;;2.60;99.90;;;;;;5081494;28;20504;-70
2023/12/08 02:15:12;;;;;;;19.20;18.20;;;2.70;99.90;;;;;;5087782;28;20451;-70
2023/12/08 02:17:39;;;;;;;19.90;18.80;;;2.60;99.90;;;;;;5069583;28;20457;-70
2023/12/08 02:20:08;;;;;;;20.57;19.37;;;2.70;99.90;;;;;;5076717;28;20466;-71
2023/12/08 02:22:36;;;;;;;19.33;18.33;;;2.70;99.90;;;;;;5087572;28;20535;-70
2023/12/08 02:25:05;;;;;;;19.17;18.17;;;2.60;99.90;;;;;;5076851;28;20548;-70
2023/12/08 02:27:31;;;;;;;19.30;18.30;;;2.60;99.90;;;;;;5086090;28;20454;-71
2023/12/08 02:29:58;;;;;;;19.07;18.07;;;2.60;99.90;;;;;;5088894;28;20454;-71
2023/12/08 02:32:33;;;;;;;19.20;18.20;;;2.60;99.90;;;;;;5079994;28;20472;-70
2023/12/08 02:35:02;;;;;;;19.50;18.50;;;2.60;99.90;;;;;;5081488;28;20538;-70
2023/12/08 02:37:35;;;;;;;19.37;18.37;;;2.60;99.90;;;;;;5075404;28;20475;-71
2023/12/08 02:40:06;;;;;;;18.90;18.00;;;2.70;99.90;;;;;;5085141;28;20455;-70
2023/12/08 02:42:34;;;;;;;18.30;17.40;;;2.70;99.90;;;;;;5096536;28;20462;-70
2023/12/08 02:45:01;;;;;;;18.43;17.53;;;2.70;99.90;;;;;;5091234;28;20952;-71
2023/12/08 02:47:28;;;;;;;18.60;17.70;;;2.70;99.90;;;;;;5074873;28;20463;-70
2023/12/08 02:49:55;;;;;;;18.13;17.30;;;2.70;99.90;;;;;;5088786;28;20450;-70
2023/12/08 02:52:22;;;;;;;18.20;17.30;;;2.70;99.90;;;;;;5080429;28;20460;-71
2023/12/08 02:54:49;;;;;;;18.80;17.90;;;2.70;99.90;;;;;;5095508;28;20477;-70
2023/12/08 02:57:18;;;;;;;18.70;17.80;;;2.70;99.90;;;;;;5088451;28;20462;-69
2023/12/08 02:59:45;;;;;;;18.67;17.77;;;2.80;99.90;;;;;;5079259;28;20860;-70
2023/12/08 03:02:13;;;;;;;18.67;17.77;;;2.80;99.90;;;;;;5076693;28;20471;-70
2023/12/08 03:04:40;;;;;;;18.60;17.70;;;2.70;99.90;;;;;;5088235;28;20494;-70
2023/12/08 03:07:07;;;;;;;19.10;18.10;;;2.80;99.90;;;;;;5090538;28;20470;-69
2023/12/08 03:09:34;;;;;;;19.23;18.13;;;2.80;99.90;;;;;;5078473;28;20516;-69
2023/12/08 03:12:01;;;;;;;19.10;18.10;;;2.80;99.90;;;;;;5093916;28;20468;-69
2023/12/08 03:14:30;;;;;;;20.10;19.00;;;2.80;99.90;;;;;;5090403;28;20459;-69
2023/12/08 03:16:58;;;;;;;19.63;18.53;;;2.90;99.90;;;;;;5094625;28;20452;-69
2023/12/08 03:19:24;;;;;;;20.17;19.00;;;2.90;99.90;;;;;;5076040;28;20509;-69
2023/12/08 03:21:52;;;;;;;20.40;19.20;;;2.90;99.90;;;;;;5078299;28;20463;-70
2023/12/08 03:24:19;;;;;;;20.30;19.07;;;2.80;99.90;;;;;;5090027;28;20502;-69
2023/12/08 03:26:47;;;;;;;21.20;19.90;;;2.80;99.90;;;;;;5080397;28;20487;-70
2023/12/08 03:29:15;;;;;;;20.80;19.50;;;2.70;99.90;;;;;;5078776;28;20463;-69
2023/12/08 03:31:43;;;;;;;21.30;19.90;;;2.70;99.90;;;;;;5090318;28;20457;-70
2023/12/08 03:34:10;;;;;;;20.57;19.27;;;2.60;99.90;;;;;;5085985;28;20452;-69
2023/12/08 03:36:37;;;;;;;20.90;19.60;;;2.60;99.90;;;;;;5081659;28;20471;-70
2023/12/08 03:39:04;;;;;;;20.10;18.90;;;2.60;99.90;;;;;;5085248;28;20462;-69
2023/12/08 03:41:30;;;;;;;20.10;18.90;;;2.60;99.90;;;;;;5090556;28;20680;-70
2023/12/08 03:43:58;;;;;;;19.90;18.70;;;2.60;99.90;;;;;;5087443;28;20601;-69
2023/12/08 03:46:25;;;;;;;19.50;18.40;;;2.60;99.90;;;;;;5079713;28;20460;-70
2023/12/08 03:48:53;;;;;;;19.07;17.97;;;2.60;99.90;;;;;;5087623;28;20512;-70
2023/12/08 03:51:20;;;;;;;18.93;17.83;;;2.60;99.90;;;;;;5087595;28;20519;-70
2023/12/08 03:53:47;;;;;;;18.83;17.83;;;2.60;99.90;;;;;;5089213;28;20458;-70
2023/12/08 03:56:14;;;;;;;18.47;17.47;;;2.60;99.90;;;;;;5080865;28;20545;-69
2023/12/08 03:58:41;;;;;;;18.17;17.17;;;2.60;99.90;;;;;;5088324;28;20545;-69
2023/12/08 04:01:08;;;;;;;18.40;17.40;;;2.60;99.90;;;;;;5090173;28;20467;-69
2023/12/08 04:03:39;;;;;;;17.93;17.03;;;2.70;99.90;;;;;;5079670;28;20476;-70
2023/12/08 04:06:08;;;;;;;17.27;16.37;;;2.60;99.90;;;;;;5087982;28;20459;-70
2023/12/08 04:08:35;;;;;;;16.50;15.70;;;2.50;99.90;;;;;;5085143;28;20470;-69
2023/12/08 04:11:03;;;;;;;16.30;15.50;;;2.50;99.90;;;;;;5086298;28;20458;-70
2023/12/08 04:13:30;;;;;;;16.47;15.67;;;2.50;99.90;;;;;;5092563;28;20535;-70
2023/12/08 04:15:56;;;;;;;16.40;15.60;;;2.40;99.90;;;;;;5081302;28;20467;-71
2023/12/08 04:18:24;;;;;;;15.90;15.20;;;2.50;99.90;;;;;;5089488;28;20465;-71
2023/12/08 04:20:52;;;;;;;15.87;15.17;;;2.50;99.90;;;;;;5076475;28;21039;-70
2023/12/08 04:23:20;;;;;;;15.50;14.80;;;2.50;99.90;;;;;;5076219;28;20517;-70
2023/12/08 04:25:48;;;;;;;15.47;14.77;;;2.40;99.90;;;;;;5081251;28;20494;-71
2023/12/08 04:28:15;;;;;;;15.20;14.60;;;2.40;99.90;;;;;;5079091;28;20574;-70
2023/12/08 04:30:42;;;;;;;15.83;15.13;;;2.40;99.90;;;;;;5084614;28;20698;-70
2023/12/08 04:33:09;;;;;;;15.87;15.17;;;2.40;99.90;;;;;;5078261;28;20464;-70
2023/12/08 04:35:36;;;;;;;15.37;14.77;;;2.40;99.90;;;;;;5082130;28;20555;-70
2023/12/08 04:38:04;;;;;;;14.37;13.83;;;2.30;99.90;;;;;;5086279;28;20475;-70
2023/12/08 04:40:32;;;;;;;14.80;14.20;;;2.30;99.90;;;;;;5083880;28;20459;-70
2023/12/08 04:42:59;;;;;;;14.27;13.77;;;2.30;99.90;;;;;;5090612;28;20461;-71
2023/12/08 04:45:26;;;;;;;14.43;13.90;;;2.30;99.90;;;;;;5088076;28;20467;-70
2023/12/08 04:47:55;;;;;;;14.37;13.87;;;2.30;99.90;;;;;;5077433;28;20470;-70
2023/12/08 04:50:21;;;;;;;14.10;13.60;;;2.40;99.90;;;;;;5087702;28;21033;-71
2023/12/08 04:52:48;;;;;;;14.77;14.17;;;2.30;99.90;;;;;;5085036;28;20468;-71
2023/12/08 04:55:15;;;;;;;15.10;14.50;;;2.30;99.90;;;;;;5077532;28;20466;-71
2023/12/08 04:57:44;;;;;;;14.17;13.67;;;2.30;99.90;;;;;;5088005;28;20468;-70
2023/12/08 05:00:11;;;;;;;14.10;13.60;;;2.30;99.90;;;;;;5080535;28;20459;-71
2023/12/08 05:02:39;;;;;;;14.67;14.07;;;2.30;99.90;;;;;;5077023;28;20990;-71
2023/12/08 05:05:06;;;;;;;14.30;13.80;;;2.40;99.90;;;;;;5078209;28;20487;-72
2023/12/08 05:07:33;;;;;;;14.30;13.80;;;2.40;99.90;;;;;;5073325;28;20455;-71
2023/12/08 05:10:00;;;;;;;13.97;13.47;;;2.30;99.90;;;;;;5083782;28;20442;-71
2023/12/08 05:12:27;;;;;;;14.60;14.10;;;2.30;99.90;;;;;;5085116;28;20546;-71
2023/12/08 05:14:55;;;;;;;13.80;13.30;;;2.40;99.90;;;;;;5075016;28;20463;-71
2023/12/08 05:17:22;;;;;;;14.00;13.50;;;2.30;99.90;;;;;;5077683;28;20879;-72
2023/12/08 05:19:49;;;;;;;14.50;14.00;;;2.30;99.90;;;;;;5072626;28;20463;-71
2023/12/08 05:22:16;;;;;;;14.20;13.70;;;2.40;99.90;;;;;;5083690;28;20459;-71
2023/12/08 05:24:43;;;;;;;14.43;13.93;;;2.40;99.90;;;;;;5079401;28;20492;-71
2023/12/08 05:27:09;;;;;;;14.30;13.80;;;2.40;99.90;;;;;;5087607;28;20914;-71
2023/12/08 05:29:36;;;;;;;14.83;14.23;;;2.40;99.90;;;;;;5077919;28;20463;-71
2023/12/08 05:32:04;;;;;;;14.50;14.00;;;2.50;99.90;;;;;;5087668;28;20474;-71
2023/12/08 05:34:32;;;;;;;14.90;14.30;;;2.50;99.90;;;;;;5087836;28;20463;-71
2023/12/08 05:36:59;;;;;;;14.63;14.10;;;2.60;99.90;;;;;;5080552;28;20955;-71
2023/12/08 05:39:26;;;;;;;14.97;14.37;;;2.60;99.90;;;;;;5078584;28;20476;-72
2023/12/08 05:41:53;;;;;;;15.00;14.40;;;2.60;99.90;;;;;;5084060;28;20453;-72
2023/12/08 05:44:21;;;;;;;14.40;13.90;;;2.60;99.90;;;;;;5081898;28;20492;-71
2023/12/08 05:46:48;;;;;;;14.70;14.10;;;2.60;99.90;;;;;;5087839;28;20456;-71
2023/12/08 05:49:18;;;;;;;15.70;15.10;;;2.60;99.90;;;;;;5087489;28;20452;-72
2023/12/08 05:51:45;;;;;;;15.20;14.60;;;2.70;99.90;;;;;;5076474;28;20985;-71
2023/12/08 05:54:11;;;;;;;15.03;14.43;;;2.70;99.90;;;;;;5075007;28;20871;-71
2023/12/08 05:56:39;;;;;;;15.20;14.60;;;2.70;99.90;;;;;;5085932;28;20813;-71
2023/12/08 05:59:06;;;;;;;14.40;13.90;;;2.70;99.90;;;;;;5082992;28;20554;-72
2023/12/08 06:01:33;;;;;;;15.30;14.70;;;2.60;99.90;;;;;;5087462;28;20639;-72
2023/12/08 06:04:00;;;;;;;14.40;13.90;;;2.60;99.90;;;;;;5076161;28;20488;-71
2023/12/08 06:06:29;;;;;;;14.90;14.30;;;2.70;99.90;;;;;;5085601;28;20524;-71
2023/12/08 06:08:56;;;;;;;14.13;13.63;;;2.60;99.90;;;;;;5085102;28;20459;-72
2023/12/08 06:11:24;;;;;;;14.87;14.27;;;2.60;99.90;;;;;;5083199;28;20458;-71
2023/12/08 06:13:50;;;;;;;14.77;14.17;;;2.70;99.90;;;;;;5075005;28;20557;-72
2023/12/08 06:16:17;;;;;;;15.33;14.73;;;2.70;99.90;;;;;;5081553;28;20459;-70
2023/12/08 06:18:45;;;;;;;14.97;14.37;;;2.70;99.90;;;;;;5085475;28;20458;-71
2023/12/08 06:21:12;;;;;;;15.20;14.60;;;2.70;99.90;;;;;;5087346;28;20464;-71
2023/12/08 06:23:40;;;;;;;15.13;14.53;;;2.80;99.90;;;;;;5083095;28;20977;-71
2023/12/08 06:26:07;;;;;;;15.13;14.53;;;2.80;99.90;;;;;;5085269;28;20497;-71
2023/12/08 06:28:34;;;;;;;14.80;14.20;;;2.80;99.90;;;;;;5085521;28;20460;-71
2023/12/08 06:31:02;;;;;;;14.70;14.13;;;2.80;99.90;;;;;;5086133;28;20466;-70
2023/12/08 06:33:29;;;;;;;15.00;14.40;;;2.70;99.90;;;;;;5082077;28;20946;-72
2023/12/08 06:35:56;;;;;;;15.73;15.10;;;2.80;99.90;;;;;;5090783;28;20459;-71
2023/12/08 06:38:23;;;;;;;15.30;14.70;;;2.80;99.90;;;;;;5081692;28;20493;-71
2023/12/08 06:40:51;;;;;;;15.60;15.00;;;2.80;99.90;;;;;;5082647;28;20468;-71
2023/12/08 06:43:19;;;;;;;14.97;14.37;;;2.90;99.90;;;;;;5088134;28;20556;-71
2023/12/08 06:45:46;;;;;;;15.80;15.10;;;2.90;99.90;;;;;;5081606;28;20639;-71
2023/12/08 06:48:13;;;;;;;15.50;14.90;;;2.90;99.90;;;;;;5083230;28;20466;-71
2023/12/08 06:50:40;;;;;;;15.20;14.60;;;2.90;99.90;;;;;;5071011;28;20794;-71
2023/12/08 06:53:08;;;;;;;15.30;14.70;;;2.80;99.90;;;;;;5084616;28;20463;-72
2023/12/08 06:55:36;;;;;;;15.73;15.03;;;2.80;99.90;;;;;;5085515;28;20516;-71
2023/12/08 06:58:04;;;;;;;15.77;15.07;;;2.90;99.90;;;;;;5089368;28;20497;-71
2023/12/08 07:00:31;;;;;;;16.10;15.40;;;2.90;99.90;;;;;;5084831;28;20624;-71
2023/12/08 07:02:58;;;;;;;15.37;14.77;;;2.90;99.90;;;;;;5082203;28;20472;-71
2023/12/08 07:05:26;;;;;;;15.20;14.60;;;2.90;99.90;;;;;;5086424;28;20499;-71
2023/12/08 07:07:54;;;;;;;15.80;15.10;;;3.00;99.90;;;;;;5078834;28;20471;-70
2023/12/08 07:10:22;;;;;;;16.10;15.40;;;3.00;99.90;;;;;;5082455;28;20458;-71
2023/12/08 07:12:50;;;;;;;15.97;15.27;;;3.00;99.90;;;;;;5094607;28;20506;-71
2023/12/08 07:15:18;;;;;;;16.20;15.50;;;3.00;99.90;;;;;;5081924;28;20468;-71
2023/12/08 07:17:45;;;;;;;16.50;15.80;;;3.10;99.90;;;;;;5075652;28;20875;-70
2023/12/08 07:20:13;;;;;;;16.40;15.70;;;3.00;99.90;;;;;;5086230;28;20525;-70
2023/12/08 07:22:40;;;;;;;16.00;15.30;;;3.10;99.90;;;;;;5085561;28;20460;-70
2023/12/08 07:25:10;;;;;;;15.40;14.80;;;3.10;99.90;;;;;;5080117;28;20790;-70
2023/12/08 07:27:36;;;;;;;16.17;15.47;;;3.00;99.90;;;;;;5091761;28;20455;-71
2023/12/08 07:30:03;;;;;;;16.13;15.43;;;3.00;99.90;;;;;;5086373;28;20465;-71
2023/12/08 07:32:31;;;;;;;15.77;15.07;;;3.00;99.90;;;;;;5082133;28;20893;-69
2023/12/08 07:34:58;;;;;;;15.60;14.90;;;3.10;99.90;;;;;;5082764;28;20460;-70
2023/12/08 07:37:25;;;;;;;15.97;15.27;;;3.00;99.90;;;;;;5070689;28;20477;-70
2023/12/08 07:39:52;;;;;;;16.20;15.50;;;3.10;99.90;;;;;;5081243;28;20467;-70
2023/12/08 07:42:19;;;;;;;16.20;15.50;;;3.10;99.90;;;;;;5084114;28;20518;-70
2023/12/08 07:44:46;;;;;;;16.30;15.60;;;3.10;99.90;;;;;;5078457;28;20491;-70
2023/12/08 07:47:13;;;;;;;16.20;15.50;;;3.10;99.90;;;;;;5084214;28;20868;-69
2023/12/08 07:49:41;;;;;;;15.80;15.10;;;3.10;99.90;;;;;;5079047;28;20552;-69
2023/12/08 07:52:09;;;;;;;15.97;15.27;;;3.10;99.90;;;;;;5084751;28;20568;-71
2023/12/08 07:54:36;;;;;;;16.17;15.47;;;3.20;99.90;;;;;;5079530;28;20526;-70
2023/12/08 07:57:03;;;;;;;16.83;16.03;;;3.20;99.90;;;;;;5092619;28;20455;-70
2023/12/08 07:59:30;;;;;;;16.50;15.80;;;3.30;99.90;;;;;;5081399;28;20472;-70
2023/12/08 08:01:57;;;;;;;16.10;15.40;;;3.30;99.90;;;;;;5082361;28;21012;-70
2023/12/08 08:04:23;;;;;;;15.93;15.23;;;3.30;99.90;;;;;;5077475;28;20478;-70
2023/12/08 08:06:52;;;;;;;16.33;15.63;;;3.20;99.90;;;;;;5080270;28;20489;-71
2023/12/08 08:09:20;;;;;;;16.40;15.70;;;3.30;99.90;;;;;;5089305;28;20457;-71
2023/12/08 08:11:47;;;;;;;16.27;15.57;;;3.30;99.90;;;;;;5078891;28;20468;-70
2023/12/08 08:14:15;;;;;;;16.60;15.80;;;3.40;99.90;;;;;;5090077;28;20466;-70
2023/12/08 08:16:42;;;;;;;16.70;15.90;;;3.40;99.90;;;;;;5079361;28;20472;-70
2023/12/08 08:19:09;;;;;;;16.17;15.47;;;3.40;99.90;;;;;;5086995;28;20454;-70
2023/12/08 08:21:36;;;;;;;17.20;16.40;;;3.40;99.90;;;;;;5086031;28;20466;-70
2023/12/08 08:24:05;;;;;;;16.47;15.70;;;3.50;99.90;;;;;;5077520;28;20465;-69
2023/12/08 08:26:32;;;;;;;16.73;15.93;;;3.50;99.90;;;;;;5075713;28;20616;-69
2023/12/08 08:28:58;;;;;;;17.10;16.30;;;3.60;99.90;;;;;;5084128;28;20473;-69
2023/12/08 08:31:25;;;;;;;16.43;15.73;;;3.50;99.90;;;;;;5080190;28;20932;-69
2023/12/08 08:33:53;;;;;;;17.07;16.27;;;3.50;99.90;;;;;;5071933;28;20599;-69
2023/12/08 08:36:20;;;;;;;16.10;15.40;;;3.60;99.90;;;;;;5086291;28;21104;-69
2023/12/08 08:38:47;;;;;;;17.20;16.40;;;3.60;99.90;;;;;;5074056;28;20462;-69
2023/12/08 08:41:15;;;;;;;17.10;16.30;;;3.60;99.90;;;;;;5072723;28;20477;-69
2023/12/08 08:43:42;;;;;;;17.00;16.20;;;3.70;99.90;;;;;;5082286;28;20457;-69
2023/12/08 08:46:09;;;;;;;16.37;15.67;;;3.70;99.90;;;;;;5080495;28;20980;-70
2023/12/08 08:48:36;;;;;;;16.17;15.47;;;3.70;99.90;;;;;;5082296;28;20508;-70
2023/12/08 08:51:04;;;;;;;17.20;16.40;;;3.70;99.90;;;;;;5077729;28;20518;-69
2023/12/08 08:53:31;;;;;;;16.50;15.80;;;3.70;99.90;;;;;;5080847;28;20557;-71
2023/12/08 08:55:58;;;;;;;16.70;16.00;;;3.70;99.90;;;;;;5076356;28;20487;-69
2023/12/08 08:58:27;;;;;;;17.10;16.30;;;3.70;99.90;;;;;;5086898;28;20811;-70
2023/12/08 09:00:54;;;;;;;16.07;15.37;;;3.70;99.90;;;;;;5084896;28;20923;-71
2023/12/08 09:03:21;;;;;;;17.40;16.60;;;3.80;99.90;;;;;;5072477;28;20466;-71
2023/12/08 09:05:48;;;;;;;17.07;16.30;;;3.80;99.90;;;;;;5085748;28;20490;-71
2023/12/08 09:08:15;;;;;;;16.90;16.20;;;3.80;99.90;;;;;;5084258;28;20963;-70
2023/12/08 09:10:45;;;;;;;16.93;16.20;;;3.80;99.90;;;;;;5070346;28;20462;-71
2023/12/08 09:13:11;;;;;;;17.50;16.70;;;3.80;99.90;;;;;;5077641;28;20633;-70
2023/12/08 09:15:40;;;;;;;17.23;16.43;;;3.90;99.90;;;;;;5087444;28;20454;-71
2023/12/08 09:18:07;;;;;;;17.07;16.27;;;3.90;99.90;;;;;;5077894;28;20465;-71
2023/12/08 09:20:34;;;;;;;17.03;16.23;;;3.90;99.90;;;;;;5075814;28;20949;-71
2023/12/08 09:23:00;;;;;;;16.00;15.30;;;3.90;99.90;;;;;;5081036;28;20462;-70
2023/12/08 09:25:27;;;;;;;17.30;16.50;;;3.90;99.90;;;;;;5077039;28;20507;-71
2023/12/08 09:27:54;;;;;;;16.90;16.20;;;4.00;99.90;;;;;;5079670;28;20467;-69
2023/12/08 09:30:21;;;;;;;16.80;16.10;;;4.00;99.90;;;;;;5085733;28;20465;-70
2023/12/08 09:32:50;;;;;;;17.23;16.43;;;4.00;99.90;;;;;;5076515;28;20461;-70
2023/12/08 09:35:17;;;;;;;17.20;16.40;;;4.10;99.90;;;;;;5078332;28;20458;-69
2023/12/08 09:37:44;;;;;;;17.23;16.43;;;4.10;99.90;;;;;;5071731;28;20820;-70
2023/12/08 09:40:14;;;;;;;16.43;15.73;;;4.10;99.90;;;;;;5077436;28;20470;-70
2023/12/08 09:42:46;;;;;;;18.70;17.80;;;4.20;99.90;;;;;;5077633;28;20855;-70
2023/12/08 09:45:14;;;;;;;17.33;16.53;;;4.20;99.90;;;;;;5077243;28;20470;-71
2023/12/08 09:47:41;;;;;;;17.70;16.90;;;4.40;99.90;;;;;;5072742;28;20466;-70
2023/12/08 09:50:12;;;;;;;17.17;16.37;;;4.40;99.90;;;;;;5075200;28;20844;-71
2023/12/08 09:52:40;;;;;;;17.03;16.23;;;4.50;99.90;;;;;;5071169;28;20450;-70
2023/12/08 09:55:07;;;;;;;16.97;16.17;;;4.50;99.90;;;;;;5073328;28;20965;-70
2023/12/08 09:57:35;;;;;;;18.03;17.13;;;4.60;99.90;;;;;;5078080;28;21054;-69
2023/12/08 10:00:11;;;;;;;17.07;16.27;;;4.60;99.90;;;;;;5080623;28;20968;-70
2023/12/08 10:02:39;;;;;;;17.80;16.90;;;4.60;99.90;;;;;;5072531;28;20470;-70
2023/12/08 10:05:06;;;;;;;17.33;16.53;;;4.60;99.90;;;;;;5072648;28;20570;-70
2023/12/08 10:07:36;;;;;;;17.97;17.07;;;4.60;99.90;;;;;;5073199;28;20470;-70
2023/12/08 10:10:03;;;;;;;17.03;16.23;;;4.70;99.90;;;;;;5070302;28;20465;-70
2023/12/08 10:12:30;;;;;;;17.70;16.90;;;4.80;99.90;;;;;;5070491;28;20470;-70
2023/12/08 10:14:58;;;;;;;18.10;17.20;;;4.90;99.90;;;;;;5072915;28;20458;-69
2023/12/08 10:17:26;;;;;;;17.27;16.47;;;5.00;99.90;;;;;;5070040;28;20473;-71
2023/12/08 10:20:08;;;;;;;17.70;16.90;;;5.10;99.90;;;;;;5074336;28;20478;-70
2023/12/08 10:22:47;;;;;;;17.87;16.97;;;5.20;99.90;;;;;;5071376;28;20467;-70
2023/12/08 10:25:16;;;;;;;16.87;16.07;;;5.20;99.90;;;;;;5074792;28;20495;-70
2023/12/08 10:27:43;;;;;;;17.77;16.87;;;5.30;99.90;;;;;;5069543;28;20452;-70
2023/12/08 10:30:11;;;;;;;17.57;16.77;;;5.30;99.90;;;;;;5076666;28;20680;-70
2023/12/08 10:32:38;;;;;;;18.50;17.60;;;5.30;99.90;;;;;;5071849;28;20469;-70
2023/12/08 10:35:06;;;;;;;17.73;16.93;;;5.40;99.90;;;;;;5077286;28;20462;-70
2023/12/08 10:37:33;;;;;;;18.40;17.50;;;5.40;99.90;;;;;;5070751;28;21147;-70
2023/12/08 10:40:03;;;;;;;17.30;16.50;;;5.60;99.90;;;;;;5072971;28;20462;-70
2023/12/08 10:42:30;;;;;;;17.70;16.80;;;5.50;99.90;;;;;;5076693;28;20554;-70
2023/12/08 10:44:59;;;;;;;16.90;16.10;;;5.60;99.90;;;;;;5075721;28;20467;-69
2023/12/08 10:47:27;;;;;;;17.43;16.60;;;5.60;99.90;;;;;;5073307;28;20459;-71
2023/12/08 10:49:55;;;;;;;17.60;16.70;;;5.70;99.90;;;;;;5070929;28;20525;-71
2023/12/08 10:52:23;;;;;;;18.20;17.30;;;5.80;99.90;;;;;;5075293;28;20462;-71
2023/12/08 10:54:50;;;;;;;19.00;18.00;;;5.90;99.90;;;;;;5076276;28;20489;-71
2023/12/08 10:57:19;;;;;;;17.63;16.80;;;5.90;99.90;;;;;;5075863;28;20523;-70
2023/12/08 10:59:49;;;;;;;17.67;16.87;;;6.00;99.90;;;;;;5071115;28;20978;-71
2023/12/08 11:02:23;;;;;;;18.30;17.40;;;6.10;99.90;;;;;;5074823;28;21083;-70
2023/12/08 11:04:55;;;;;;;17.97;17.07;;;6.10;99.90;;;;;;5071673;28;20878;-70
2023/12/08 11:07:31;;;;;;;18.47;17.50;;;6.30;99.90;;;;;;5072651;28;20554;-70
2023/12/08 11:10:03;;;;;;;19.30;18.30;;;6.40;99.90;;;;;;5078129;28;20462;-70
2023/12/08 11:12:33;;;;;;;19.00;18.00;;;6.50;99.90;;;;;;5077035;28;20469;-70
2023/12/08 11:15:04;;;;;;;18.23;17.33;;;6.60;99.90;;;;;;5079045;28;20462;-70
2023/12/08 11:17:36;;;;;;;18.67;17.77;;;6.80;99.90;;;;;;5072802;28;20461;-69
2023/12/08 11:20:05;;;;;;;18.17;17.27;;;6.90;99.90;;;;;;5078747;28;20492;-69
2023/12/08 11:22:33;;;;;;;18.27;17.37;;;7.00;99.90;;;;;;5077468;28;20909;-70
2023/12/08 11:25:06;;;;;;;17.27;16.47;;;7.10;99.90;;;;;;5070535;28;20494;-70
2023/12/08 11:27:42;;;;;;;16.80;16.10;;;7.10;99.90;;;;;;5076819;28;20462;-70
2023/12/08 11:30:16;;;;;;;17.37;16.60;;;7.10;99.90;;;;;;5075624;28;20467;-70
2023/12/08 11:32:52;;;;;;;17.03;16.33;;;7.20;99.90;;;;;;5075725;28;20740;-70
2023/12/08 11:35:20;;;;;;;16.40;15.80;;;7.20;99.90;;;;;;5077114;28;20462;-70
2023/12/08 11:37:46;;;;;;;16.17;15.57;;;7.20;99.90;;;;;;5079157;28;20454;-70
2023/12/08 11:40:15;;;;;;;16.47;15.87;;;7.30;99.90;;;;;;5078378;28;20948;-70
2023/12/08 11:42:47;;;;;;;17.20;16.50;;;7.30;99.90;;;;;;5067940;28;20464;-71
2023/12/08 11:45:14;;;;;;;17.90;17.20;;;7.40;99.90;;;;;;5077263;28;20477;-71
2023/12/08 11:47:43;;;;;;;17.13;16.43;;;7.50;99.90;;;;;;5078682;28;20460;-71
2023/12/08 11:50:12;;;;;;;17.07;16.37;;;7.50;99.90;;;;;;5080016;28;20941;-71
2023/12/08 11:52:43;;;;;;;17.40;16.70;;;7.50;99.90;;;;;;5074625;28;20498;-71
2023/12/08 11:55:12;;;;;;;16.83;16.13;;;7.50;99.90;;;;;;5076164;28;20474;-71
2023/12/08 11:57:53;;;;;;;16.87;16.17;;;7.60;99.90;;;;;;5073192;28;20593;-72
2023/12/08 12:00:23;;;;;;;16.73;16.03;;;7.60;99.90;;;;;;5074849;28;20489;-72
2023/12/08 12:02:51;;;;;;;16.20;15.60;;;7.60;99.90;;;;;;5073487;28;20466;-71
2023/12/08 12:05:18;;;;;;;16.43;15.83;;;7.60;99.90;;;;;;5074983;28;20864;-72
2023/12/08 12:07:49;;;;;;;17.50;16.80;;;7.70;99.90;;;;;;5073478;28;20881;-72
2023/12/08 12:10:18;;;;;;;16.30;15.70;;;7.70;99.90;;;;;;5077584;28;20470;-71
2023/12/08 12:12:52;;;;;;;16.67;16.07;;;7.80;99.90;;;;;;5074005;28;20459;-72
2023/12/08 12:15:20;;;;;;;16.33;15.70;;;7.80;99.90;;;;;;5071556;28;20553;-71
2023/12/08 12:17:48;;;;;;;16.20;15.60;;;7.90;99.90;;;;;;5074414;28;20470;-71
2023/12/08 12:20:15;;;;;;;15.43;14.83;;;7.90;99.90;;;;;;5077113;28;20470;-71
2023/12/08 12:22:42;;;;;;;15.53;14.93;;;7.80;99.90;;;;;;5078201;28;20471;-71
2023/12/08 12:25:10;;;;;;;16.30;15.70;;;7.70;99.90;;;;;;5076418;28;20494;-72
2023/12/08 12:27:40;;;;;;;16.20;15.60;;;7.90;99.90;;;;;;5068979;28;20486;-71
2023/12/08 12:30:09;;;;;;;14.70;14.20;;;7.90;99.90;;;;;;5077585;28;20961;-72
2023/12/08 12:32:36;;;;;;;15.10;14.60;;;7.90;99.90;;;;;;5076606;28;20460;-70
2023/12/08 12:35:04;;;;;;;15.37;14.77;;;7.90;99.90;;;;;;5075909;28;20455;-71
2023/12/08 12:37:31;;;;;;;15.80;15.20;;;8.00;99.90;;;;;;5069292;28;20463;-71
2023/12/08 12:39:57;;;;;;;15.87;15.27;;;8.00;99.90;;;;;;5076500;28;20462;-71